Time;durP1;ratioP1;P1;durP2;ratioP2;P2;SDS_P1;SDS_P2;PMS_P1;PMS_P2;Temp;Humidity;BMP_temperature;BMP_pressure;BME280_temperature;BME280_humidity;BME280_pressure;Samples;Min_cycle;Max_cycle;Signal;HPM_P1;HPM_P2
2023/06/21 00:02:17;;;;;;;36.63;33.43;;;;;;;;;;5092972;28;20466;-61
2023/06/21 00:04:44;;;;;;;33.20;30.50;;;;;;;;;;5092802;28;20894;-61
2023/06/21 00:07:11;;;;;;;38.07;34.67;;;;;;;;;;5092854;28;20446;-61
2023/06/21 00:09:38;;;;;;;36.47;33.27;;;;;;;;;;5092937;28;20446;-61
2023/06/21 00:12:05;;;;;;;35.07;32.17;;;;;;;;;;5092849;28;20442;-61
2023/06/21 00:14:32;;;;;;;33.33;30.53;;;;;;;;;;5092676;28;20477;-61
2023/06/21 00:17:00;;;;;;;36.33;33.13;;;;;;;;;;5092836;28;20474;-61
2023/06/21 00:19:27;;;;;;;34.83;32.00;;;;;;;;;;5092679;28;20478;-61
2023/06/21 00:21:54;;;;;;;35.57;32.57;;;;;;;;;;5092960;28;20542;-61
2023/06/21 00:24:21;;;;;;;36.90;33.87;;;;;;;;;;5092824;28;20550;-61
2023/06/21 00:26:48;;;;;;;36.23;33.13;;;;;;;;;;5092796;28;20447;-61
2023/06/21 00:29:15;;;;;;;35.10;32.30;;;;;;;;;;5092730;28;20450;-61
2023/06/21 00:31:42;;;;;;;35.93;32.83;;;;;;;;;;5092619;28;20868;-61
2023/06/21 00:34:10;;;;;;;35.63;32.50;;;;;;;;;;5092729;28;20478;-61
2023/06/21 00:36:41;;;;;;;36.07;33.20;;;;;;;;;;5092386;28;20538;-61
2023/06/21 00:39:09;;;;;;;36.30;32.83;;;;;;;;;;5092389;28;20522;-61
2023/06/21 00:41:36;;;;;;;35.47;32.37;;;;;;;;;;5092618;28;20447;-61
2023/06/21 00:44:03;;;;;;;34.27;31.43;;;;;;;;;;5092595;28;20446;-61
2023/06/21 00:46:30;;;;;;;36.20;33.13;;;;;;;;;;5092437;28;20447;-61
2023/06/21 00:48:58;;;;;;;36.17;33.07;;;;;;;;;;5092710;28;20443;-61
2023/06/21 00:51:26;;;;;;;36.83;33.53;;;;;;;;;;5092566;28;20534;-61
2023/06/21 00:53:54;;;;;;;35.20;32.03;;;;;;;;;;5092385;28;20447;-61
2023/06/21 00:56:21;;;;;;;35.97;32.80;;;;;;;;;;5092237;28;20486;-61
2023/06/21 00:58:48;;;;;;;34.30;31.30;;;;;;;;;;5092380;28;20447;-61
2023/06/21 01:01:15;;;;;;;35.20;32.20;;;;;;;;;;5092452;28;20482;-61
2023/06/21 01:03:42;;;;;;;36.27;32.97;;;;;;;;;;5093813;28;20453;-61
2023/06/21 01:06:11;;;;;;;32.90;30.07;;;;;;;;;;5095995;28;20447;-61
2023/06/21 01:08:44;;;;;;;35.00;32.03;;;;;;;;;;5096093;28;20861;-61
2023/06/21 01:11:15;;;;;;;36.70;33.50;;;;;;;;;;5095921;28;20507;-61
2023/06/21 01:13:52;;;;;;;36.13;32.93;;;;;;;;;;5095796;28;20451;-61
2023/06/21 01:16:20;;;;;;;33.93;31.20;;;;;;;;;;5095845;28;20447;-61
2023/06/21 01:18:49;;;;;;;35.13;32.03;;;;;;;;;;5095780;28;20455;-61
2023/06/21 01:21:18;;;;;;;35.03;32.10;;;;;;;;;;5095660;28;20482;-61
2023/06/21 01:23:55;;;;;;;34.47;31.63;;;;;;;;;;5095553;28;20512;-61
2023/06/21 01:26:29;;;;;;;33.60;30.77;;;;;;;;;;5095760;28;20456;-61
2023/06/21 01:29:12;;;;;;;33.13;30.33;;;;;;;;;;5095728;28;20456;-61
2023/06/21 01:31:42;;;;;;;34.70;31.70;;;;;;;;;;5095627;28;20546;-61
2023/06/21 01:34:09;;;;;;;32.07;29.50;;;;;;;;;;5095451;28;20474;-61
2023/06/21 01:36:36;;;;;;;33.73;30.87;;;;;;;;;;5095170;28;20449;-61
2023/06/21 01:39:05;;;;;;;35.97;32.80;;;;;;;;;;5095534;28;20461;-61
2023/06/21 01:41:32;;;;;;;32.40;29.70;;;;;;;;;;5095388;28;20479;-61
2023/06/21 01:43:59;;;;;;;35.13;32.23;;;;;;;;;;5095445;28;20538;-61
2023/06/21 01:46:28;;;;;;;33.87;31.07;;;;;;;;;;5095127;28;20458;-61
2023/06/21 01:48:56;;;;;;;33.77;30.60;;;;;;;;;;5095066;28;20542;-61
2023/06/21 01:51:24;;;;;;;32.57;29.57;;;;;;;;;;5095309;28;20459;-61
2023/06/21 01:53:52;;;;;;;34.57;31.47;;;;;;;;;;5095117;28;20446;-61
2023/06/21 01:56:19;;;;;;;36.93;33.30;;;;;;;;;;5094933;28;20481;-61
2023/06/21 01:58:47;;;;;;;34.70;31.67;;;;;;;;;;5095050;28;20802;-61
2023/06/21 02:01:15;;;;;;;33.07;30.27;;;;;;;;;;5094906;28;20487;-61
2023/06/21 02:03:50;;;;;;;31.43;28.93;;;;;;;;;;5094853;28;20504;-61
2023/06/21 02:06:20;;;;;;;31.87;29.33;;;;;;;;;;5094847;28;20442;-61
2023/06/21 02:08:47;;;;;;;32.13;29.33;;;;;;;;;;5095135;28;20952;-61
2023/06/21 02:11:15;;;;;;;32.90;30.00;;;;;;;;;;5094779;28;20443;-61
2023/06/21 02:13:42;;;;;;;32.13;29.23;;;;;;;;;;5094509;28;20443;-61
2023/06/21 02:16:09;;;;;;;31.60;28.97;;;;;;;;;;5094574;28;20469;-61
2023/06/21 02:18:36;;;;;;;30.37;27.67;;;;;;;;;;5094692;28;20530;-61
2023/06/21 02:21:04;;;;;;;33.23;30.23;;;;;;;;;;5094382;28;20569;-61
2023/06/21 02:23:31;;;;;;;32.00;29.30;;;;;;;;;;5094593;28;20483;-61
2023/06/21 02:25:58;;;;;;;31.00;28.37;;;;;;;;;;5094462;28;20814;-61
2023/06/21 02:28:25;;;;;;;30.77;28.37;;;;;;;;;;5094224;28;20458;-61
2023/06/21 02:30:52;;;;;;;31.03;28.53;;;;;;;;;;5094478;28;20454;-61
2023/06/21 02:33:19;;;;;;;29.07;26.67;;;;;;;;;;5094345;28;20447;-61
2023/06/21 02:35:45;;;;;;;28.83;26.63;;;;;;;;;;5094220;28;20434;-61
2023/06/21 02:38:14;;;;;;;29.47;27.10;;;;;;;;;;5094178;28;20912;-61
2023/06/21 02:40:40;;;;;;;31.50;28.83;;;;;;;;;;5094087;28;20918;-61
2023/06/21 02:43:07;;;;;;;30.60;28.00;;;;;;;;;;5093971;28;20473;-61
2023/06/21 02:45:36;;;;;;;28.83;26.30;;;;;;;;;;5094096;28;20542;-61
2023/06/21 02:48:04;;;;;;;28.30;26.00;;;;;;;;;;5094016;28;20473;-61
2023/06/21 02:50:31;;;;;;;30.57;28.10;;;;;;;;;;5093780;28;20992;-61
2023/06/21 02:52:58;;;;;;;28.00;25.67;;;;;;;;;;5093740;28;20837;-61
2023/06/21 02:55:26;;;;;;;29.03;26.70;;;;;;;;;;5093667;28;20513;-61
2023/06/21 02:57:53;;;;;;;30.07;27.57;;;;;;;;;;5094032;28;20443;-61
2023/06/21 03:00:23;;;;;;;28.73;26.23;;;;;;;;;;5093913;28;20485;-61
2023/06/21 03:02:50;;;;;;;35.77;32.07;;;;;;;;;;5094068;28;20825;-61
2023/06/21 03:05:17;;;;;;;32.97;29.87;;;;;;;;;;5093910;28;20745;-61
2023/06/21 03:07:44;;;;;;;32.80;29.93;;;;;;;;;;5093600;28;20834;-61
2023/06/21 03:10:12;;;;;;;35.00;31.47;;;;;;;;;;5093513;28;20550;-61
2023/06/21 03:12:40;;;;;;;34.13;31.03;;;;;;;;;;5093745;28;20457;-61
2023/06/21 03:15:08;;;;;;;34.70;31.70;;;;;;;;;;5093561;28;20460;-61
2023/06/21 03:17:35;;;;;;;35.00;32.00;;;;;;;;;;5093509;28;20455;-61
2023/06/21 03:20:02;;;;;;;34.37;31.40;;;;;;;;;;5093492;28;20788;-61
2023/06/21 03:22:29;;;;;;;34.30;31.20;;;;;;;;;;5093385;28;20830;-61
2023/06/21 03:24:56;;;;;;;35.83;32.63;;;;;;;;;;5093297;28;20472;-61
2023/06/21 03:27:23;;;;;;;36.07;32.97;;;;;;;;;;5093019;28;20623;-61
2023/06/21 03:29:51;;;;;;;35.30;32.20;;;;;;;;;;5093323;28;20451;-61
2023/06/21 03:32:19;;;;;;;36.40;33.33;;;;;;;;;;5093207;28;20479;-61
2023/06/21 03:34:45;;;;;;;34.30;31.17;;;;;;;;;;5093140;28;20447;-61
2023/06/21 03:37:12;;;;;;;34.50;31.50;;;;;;;;;;5093053;28;20853;-61
2023/06/21 03:39:39;;;;;;;34.70;31.40;;;;;;;;;;5093328;28;20447;-61
2023/06/21 03:42:06;;;;;;;37.20;33.93;;;;;;;;;;5093186;28;20483;-61
2023/06/21 03:44:33;;;;;;;35.97;32.83;;;;;;;;;;5093266;28;21041;-61
2023/06/21 03:47:02;;;;;;;35.47;32.37;;;;;;;;;;5093070;28;20443;-61
2023/06/21 03:49:30;;;;;;;37.63;34.37;;;;;;;;;;5092817;28;20447;-61
2023/06/21 03:51:56;;;;;;;36.13;33.00;;;;;;;;;;5092899;28;20981;-61
2023/06/21 03:54:23;;;;;;;37.57;34.37;;;;;;;;;;5093139;28;20818;-61
2023/06/21 03:56:50;;;;;;;39.40;35.80;;;;;;;;;;5092707;28;20475;-61
2023/06/21 03:59:17;;;;;;;36.93;33.53;;;;;;;;;;5093007;28;20806;-61
2023/06/21 04:01:44;;;;;;;38.87;35.47;;;;;;;;;;5092915;28;20489;-61
2023/06/21 04:04:13;;;;;;;38.60;35.30;;;;;;;;;;5092849;28;20461;-61
2023/06/21 04:06:40;;;;;;;40.33;36.70;;;;;;;;;;5092990;28;20454;-61
2023/06/21 04:09:07;;;;;;;42.27;38.27;;;;;;;;;;5092876;28;20542;-61
2023/06/21 04:11:33;;;;;;;38.83;35.50;;;;;;;;;;5092920;28;20446;-61
2023/06/21 04:14:00;;;;;;;42.20;38.50;;;;;;;;;;5092786;28;20455;-61
2023/06/21 04:16:27;;;;;;;41.57;37.93;;;;;;;;;;5092698;28;20877;-61
2023/06/21 04:18:55;;;;;;;39.47;36.07;;;;;;;;;;5092733;28;20545;-61
2023/06/21 04:21:24;;;;;;;40.63;37.13;;;;;;;;;;5092589;28;20499;-61
2023/06/21 04:23:50;;;;;;;42.33;38.50;;;;;;;;;;5092672;28;20451;-61
2023/06/21 04:26:17;;;;;;;38.47;34.97;;;;;;;;;;5092687;28;20806;-61
2023/06/21 04:28:48;;;;;;;40.43;36.97;;;;;;;;;;5092731;28;20453;-61
2023/06/21 04:31:14;;;;;;;40.87;37.23;;;;;;;;;;5092627;28;20481;-61
2023/06/21 04:33:41;;;;;;;41.93;38.10;;;;;;;;;;5092572;28;20930;-61
2023/06/21 04:36:08;;;;;;;38.17;34.87;;;;;;;;;;5092613;28;20530;-62
2023/06/21 04:38:37;;;;;;;38.07;34.70;;;;;;;;;;5093839;28;20445;-61
2023/06/21 04:41:04;;;;;;;38.47;35.27;;;;;;;;;;5096418;28;20510;-61
2023/06/21 04:43:30;;;;;;;41.10;37.50;;;;;;;;;;5096327;28;20880;-61
2023/06/21 04:45:58;;;;;;;41.83;38.27;;;;;;;;;;5096990;28;20528;-61
2023/06/21 04:48:25;;;;;;;39.73;36.23;;;;;;;;;;5096352;28;20446;-61
2023/06/21 04:50:52;;;;;;;40.50;36.90;;;;;;;;;;5096423;28;21051;-61
2023/06/21 04:53:28;;;;;;;43.93;39.97;;;;;;;;;;5096181;28;20452;-61
2023/06/21 04:55:57;;;;;;;43.87;40.07;;;;;;;;;;5095974;28;20474;-60
2023/06/21 04:58:24;;;;;;;41.40;37.60;;;;;;;;;;5096041;28;20446;-61
2023/06/21 05:00:51;;;;;;;44.10;40.33;;;;;;;;;;5096164;28;20473;-61
2023/06/21 05:03:18;;;;;;;43.03;39.27;;;;;;;;;;5095992;28;20450;-61
2023/06/21 05:05:44;;;;;;;43.37;39.30;;;;;;;;;;5095953;28;20490;-61
2023/06/21 05:08:11;;;;;;;43.37;39.60;;;;;;;;;;5095871;28;20446;-61
2023/06/21 05:10:38;;;;;;;44.93;40.93;;;;;;;;;;5095700;28;20887;-61
2023/06/21 05:13:06;;;;;;;44.03;40.23;;;;;;;;;;5095715;28;20446;-61
2023/06/21 05:15:33;;;;;;;42.13;38.63;;;;;;;;;;5095924;28;20446;-60
2023/06/21 05:18:00;;;;;;;46.80;42.40;;;;;;;;;;5095806;28;20446;-61
2023/06/21 05:20:27;;;;;;;43.57;39.87;;;;;;;;;;5095680;28;21032;-61
2023/06/21 05:22:56;;;;;;;43.70;39.97;;;;;;;;;;5095713;28;20642;-61
2023/06/21 05:25:23;;;;;;;45.27;41.40;;;;;;;;;;5095541;28;20542;-61
2023/06/21 05:27:49;;;;;;;43.20;39.80;;;;;;;;;;5095376;28;20453;-61
2023/06/21 05:30:18;;;;;;;43.80;39.93;;;;;;;;;;5095607;28;20451;-61
2023/06/21 05:32:45;;;;;;;45.73;41.50;;;;;;;;;;5095504;28;20451;-61
2023/06/21 05:35:12;;;;;;;46.17;42.07;;;;;;;;;;5095487;28;20482;-60
2023/06/21 05:37:39;;;;;;;43.77;39.97;;;;;;;;;;5095224;28;20446;-61
2023/06/21 05:40:08;;;;;;;47.80;43.87;;;;;;;;;;5094927;28;20806;-61
2023/06/21 05:42:35;;;;;;;47.30;42.93;;;;;;;;;;5095359;28;20536;-61
2023/06/21 05:45:02;;;;;;;41.17;37.50;;;;;;;;;;5095383;28;20458;-61
2023/06/21 05:47:31;;;;;;;46.20;42.23;;;;;;;;;;5094940;28;20970;-60
2023/06/21 05:49:57;;;;;;;46.83;42.53;;;;;;;;;;5094723;28;20802;-61
2023/06/21 05:52:24;;;;;;;47.60;43.57;;;;;;;;;;5094970;28;20447;-61
2023/06/21 05:54:51;;;;;;;41.17;37.77;;;;;;;;;;5094962;28;20485;-61
2023/06/21 05:57:18;;;;;;;48.10;43.80;;;;;;;;;;5094614;28;20477;-61
2023/06/21 05:59:45;;;;;;;45.17;41.00;;;;;;;;;;5094877;28;20809;-61
2023/06/21 06:02:12;;;;;;;44.97;41.17;;;;;;;;;;5094704;28;20489;-61
2023/06/21 06:04:40;;;;;;;43.03;39.37;;;;;;;;;;5094713;28;20469;-60
2023/06/21 06:07:07;;;;;;;49.13;44.73;;;;;;;;;;5094584;28;20447;-61
2023/06/21 06:09:34;;;;;;;47.87;43.50;;;;;;;;;;5094815;28;20451;-61
2023/06/21 06:12:01;;;;;;;43.57;39.87;;;;;;;;;;5094635;28;20942;-61
2023/06/21 06:14:28;;;;;;;49.30;45.00;;;;;;;;;;5094750;28;20526;-61
2023/06/21 06:16:54;;;;;;;48.20;44.00;;;;;;;;;;5094551;28;20569;-61
2023/06/21 06:19:21;;;;;;;42.73;39.13;;;;;;;;;;5094568;28;20442;-61
2023/06/21 06:21:50;;;;;;;47.00;42.80;;;;;;;;;;5094293;28;20474;-61
2023/06/21 06:24:16;;;;;;;44.33;40.50;;;;;;;;;;5094482;28;20508;-61
2023/06/21 06:26:44;;;;;;;47.83;43.77;;;;;;;;;;5094323;28;20542;-61
2023/06/21 06:29:10;;;;;;;48.83;44.57;;;;;;;;;;5094367;28;20473;-61
2023/06/21 06:31:37;;;;;;;50.57;46.10;;;;;;;;;;5094130;28;20568;-61
2023/06/21 06:34:04;;;;;;;44.97;41.07;;;;;;;;;;5093992;28;20443;-61
2023/06/21 06:36:31;;;;;;;45.10;41.30;;;;;;;;;;5093998;28;20886;-61
2023/06/21 06:38:59;;;;;;;47.07;42.67;;;;;;;;;;5094312;28;20443;-61
2023/06/21 06:41:27;;;;;;;43.70;39.93;;;;;;;;;;5093796;28;20477;-61
2023/06/21 06:43:54;;;;;;;43.70;39.90;;;;;;;;;;5094095;28;20487;-60
2023/06/21 06:46:20;;;;;;;46.57;42.57;;;;;;;;;;5093918;28;20451;-61
2023/06/21 06:48:47;;;;;;;46.90;42.90;;;;;;;;;;5093774;28;20451;-61
2023/06/21 06:51:14;;;;;;;40.70;37.30;;;;;;;;;;5093984;28;20950;-61
2023/06/21 06:53:41;;;;;;;42.50;38.90;;;;;;;;;;5093857;28;20538;-61
2023/06/21 06:56:10;;;;;;;39.37;35.97;;;;;;;;;;5093587;28;20478;-61
2023/06/21 06:58:36;;;;;;;41.67;38.03;;;;;;;;;;5093852;28;20485;-60
2023/06/21 07:01:05;;;;;;;38.00;34.70;;;;;;;;;;5093451;28;20527;-61
2023/06/21 07:03:32;;;;;;;39.90;36.17;;;;;;;;;;5093598;28;20451;-61
2023/06/21 07:05:59;;;;;;;35.60;32.33;;;;;;;;;;5093712;28;20497;-61
2023/06/21 07:08:26;;;;;;;33.17;30.37;;;;;;;;;;5093639;28;20454;-61
2023/06/21 07:10:53;;;;;;;34.27;31.20;;;;;;;;;;5093697;28;20446;-61
2023/06/21 07:13:23;;;;;;;29.10;26.60;;;;;;;;;;5093541;28;20455;-61
2023/06/21 07:15:50;;;;;;;28.07;25.77;;;;;;;;;;5093645;28;20447;-61
2023/06/21 07:18:17;;;;;;;26.97;24.77;;;;;;;;;;5093201;28;20981;-61
2023/06/21 07:20:43;;;;;;;24.93;22.83;;;;;;;;;;5093673;28;20451;-61
2023/06/21 07:23:11;;;;;;;24.90;22.90;;;;;;;;;;5093292;28;20493;-62
2023/06/21 07:25:38;;;;;;;22.23;20.43;;;;;;;;;;5093261;28;20942;-64
2023/06/21 07:28:05;;;;;;;20.90;19.07;;;;;;;;;;5093261;28;20458;-59
2023/06/21 07:30:33;;;;;;;19.23;17.73;;;;;;;;;;5093173;28;20455;-60
2023/06/21 07:33:00;;;;;;;21.63;19.83;;;;;;;;;;5093393;28;20459;-60
2023/06/21 07:35:27;;;;;;;21.20;19.47;;;;;;;;;;5093157;28;20458;-61
2023/06/21 07:37:54;;;;;;;20.33;18.70;;;;;;;;;;5092922;28;20542;-64
2023/06/21 07:40:21;;;;;;;21.47;19.63;;;;;;;;;;5093007;28;20956;-64
2023/06/21 07:42:48;;;;;;;20.37;18.50;;;;;;;;;;5092868;28;20485;-64
2023/06/21 07:45:15;;;;;;;18.60;17.13;;;;;;;;;;5092880;28;20451;-58
2023/06/21 07:47:44;;;;;;;18.57;16.97;;;;;;;;;;5092994;28;20447;-59
2023/06/21 07:50:11;;;;;;;18.73;17.23;;;;;;;;;;5093083;28;20498;-60
2023/06/21 07:52:38;;;;;;;19.03;17.40;;;;;;;;;;5092894;28;20529;-58
2023/06/21 07:55:10;;;;;;;19.20;17.57;;;;;;;;;;5092767;28;20451;-59
2023/06/21 07:57:37;;;;;;;19.50;18.10;;;;;;;;;;5092819;28;20458;-59
2023/06/21 08:00:11;;;;;;;18.53;16.93;;;;;;;;;;5092953;28;20438;-59
2023/06/21 08:02:38;;;;;;;19.23;17.73;;;;;;;;;;5092935;28;20569;-60
2023/06/21 08:05:06;;;;;;;17.80;16.30;;;;;;;;;;5092884;28;20792;-59
2023/06/21 08:07:33;;;;;;;17.10;15.80;;;;;;;;;;5092728;28;20545;-60
2023/06/21 08:10:00;;;;;;;16.33;14.93;;;;;;;;;;5092653;28;20472;-61
2023/06/21 08:12:27;;;;;;;17.67;16.03;;;;;;;;;;5093990;28;20478;-59
2023/06/21 08:14:54;;;;;;;14.47;13.37;;;;;;;;;;5097186;28;20447;-62
2023/06/21 08:17:21;;;;;;;15.80;14.60;;;;;;;;;;5096927;28;20508;-62
2023/06/21 08:19:47;;;;;;;14.77;13.67;;;;;;;;;;5096829;28;20541;-60
2023/06/21 08:22:16;;;;;;;15.93;14.63;;;;;;;;;;5096705;28;20471;-60
2023/06/21 08:24:43;;;;;;;15.83;14.43;;;;;;;;;;5096739;28;20446;-62
2023/06/21 08:27:09;;;;;;;15.60;14.40;;;;;;;;;;5096830;28;20508;-62
2023/06/21 08:29:36;;;;;;;16.23;14.93;;;;;;;;;;5096769;28;20486;-61
2023/06/21 08:32:04;;;;;;;15.67;14.57;;;;;;;;;;5096558;28;20953;-62
2023/06/21 08:34:31;;;;;;;14.23;13.00;;;;;;;;;;5096659;28;20478;-61
2023/06/21 08:36:58;;;;;;;14.90;13.73;;;;;;;;;;5096371;28;20450;-62
2023/06/21 08:39:26;;;;;;;16.07;14.40;;;;;;;;;;5096371;28;20535;-63
2023/06/21 08:41:53;;;;;;;16.40;15.10;;;;;;;;;;5096608;28;20471;-63
2023/06/21 08:44:20;;;;;;;14.40;13.30;;;;;;;;;;5096693;28;20788;-63
2023/06/21 08:46:48;;;;;;;15.87;14.70;;;;;;;;;;5096367;28;20443;-63
2023/06/21 08:49:18;;;;;;;15.27;14.00;;;;;;;;;;5096373;28;20802;-58
2023/06/21 08:51:46;;;;;;;15.77;14.50;;;;;;;;;;5096141;28;21008;-59
2023/06/21 08:54:14;;;;;;;14.20;13.10;;;;;;;;;;5096321;28;20860;-58
2023/06/21 08:56:46;;;;;;;14.93;13.80;;;;;;;;;;5095802;28;20574;-60
2023/06/21 08:59:14;;;;;;;14.90;13.80;;;;;;;;;;5095722;28;20537;-59
2023/06/21 09:01:46;;;;;;;15.30;14.10;;;;;;;;;;5095830;28;20941;-59
2023/06/21 09:04:15;;;;;;;13.97;12.83;;;;;;;;;;5095795;28;20454;-58
2023/06/21 09:06:44;;;;;;;13.10;12.10;;;;;;;;;;5095653;28;20487;-60
2023/06/21 09:09:13;;;;;;;12.90;12.00;;;;;;;;;;5096095;28;20442;-59
2023/06/21 09:11:41;;;;;;;12.90;11.90;;;;;;;;;;5095567;28;20922;-58
2023/06/21 09:14:09;;;;;;;13.47;12.10;;;;;;;;;;5095846;28;20534;-60
2023/06/21 09:16:36;;;;;;;12.10;11.30;;;;;;;;;;5095828;28;20538;-59
2023/06/21 09:19:03;;;;;;;11.70;10.90;;;;;;;;;;5084584;28;20975;-60
2023/06/21 09:21:30;;;;;;;12.30;11.37;;;;;;;;;;5075473;28;20447;-60
2023/06/21 09:23:57;;;;;;;12.20;11.20;;;;;;;;;;5074640;28;20483;-60
2023/06/21 09:26:24;;;;;;;11.97;10.90;;;;;;;;;;5075333;28;20499;-60
2023/06/21 09:28:51;;;;;;;11.07;10.07;;;;;;;;;;5075413;28;20856;-61
2023/06/21 09:31:19;;;;;;;10.83;10.10;;;;;;;;;;5075092;28;20471;-58
2023/06/21 09:33:47;;;;;;;11.00;10.03;;;;;;;;;;5075001;28;20526;-58
2023/06/21 09:36:15;;;;;;;10.07;9.17;;;;;;;;;;5075050;28;20462;-59
2023/06/21 09:38:41;;;;;;;10.63;9.73;;;;;;;;;;5075218;28;20451;-58
2023/06/21 09:41:08;;;;;;;9.23;8.50;;;;;;;;;;5075022;28;20444;-59
2023/06/21 09:43:41;;;;;;;8.90;8.30;;;;;;;;;;5074943;28;20537;-58
2023/06/21 09:46:09;;;;;;;8.60;8.00;;;;;;;;;;5074808;28;20448;-60
2023/06/21 09:48:38;;;;;;;8.00;7.40;;;;;;;;;;5074552;28;20456;-61
2023/06/21 09:51:05;;;;;;;8.53;7.93;;;;;;;;;;5074897;28;20534;-58
2023/06/21 09:53:32;;;;;;;8.60;7.90;;;;;;;;;;5074715;28;20454;-60
2023/06/21 09:56:00;;;;;;;8.23;7.73;;;;;;;;;;5074461;28;20475;-60
2023/06/21 09:58:28;;;;;;;8.57;7.90;;;;;;;;;;5074561;28;20455;-58
2023/06/21 10:00:56;;;;;;;9.47;8.67;;;;;;;;;;5074451;28;20447;-60
2023/06/21 10:03:23;;;;;;;9.10;8.50;;;;;;;;;;5074597;28;20515;-59
2023/06/21 10:05:55;;;;;;;9.00;8.37;;;;;;;;;;5074455;28;20539;-59
2023/06/21 10:08:26;;;;;;;9.07;8.27;;;;;;;;;;5074536;28;20457;-61
2023/06/21 10:10:53;;;;;;;8.80;8.00;;;;;;;;;;5078588;28;20458;-61
2023/06/21 10:13:27;;;;;;;8.70;8.00;;;;;;;;;;5094799;28;20486;-60
2023/06/21 10:15:54;;;;;;;9.03;8.33;;;;;;;;;;5094672;28;20501;-59
2023/06/21 10:18:21;;;;;;;9.20;8.60;;;;;;;;;;5094529;28;20494;-58
2023/06/21 10:20:50;;;;;;;8.73;8.23;;;;;;;;;;5094489;28;20443;-58
2023/06/21 10:23:20;;;;;;;9.00;8.20;;;;;;;;;;5094321;28;20489;-59
2023/06/21 10:25:48;;;;;;;9.20;8.50;;;;;;;;;;5094354;28;20876;-60
2023/06/21 10:28:15;;;;;;;8.20;7.70;;;;;;;;;;5094495;28;20447;-58
2023/06/21 10:30:44;;;;;;;8.50;7.70;;;;;;;;;;5094297;28;20469;-57
2023/06/21 10:33:11;;;;;;;8.30;7.80;;;;;;;;;;5094390;28;20451;-59
2023/06/21 10:35:42;;;;;;;7.63;7.10;;;;;;;;;;5093271;28;20439;-59
2023/06/21 10:38:10;;;;;;;7.00;6.60;;;;;;;;;;5093881;28;20451;-59
2023/06/21 10:40:39;;;;;;;8.40;7.80;;;;;;;;;;5093958;28;20447;-60
2023/06/21 10:43:07;;;;;;;8.17;7.57;;;;;;;;;;5094062;28;20872;-59
2023/06/21 10:45:34;;;;;;;8.40;7.80;;;;;;;;;;5093974;28;20478;-60
2023/06/21 10:48:02;;;;;;;8.47;7.77;;;;;;;;;;5093745;28;20447;-59
2023/06/21 10:50:29;;;;;;;7.90;7.30;;;;;;;;;;5093830;28;20451;-57
2023/06/21 10:52:57;;;;;;;8.07;7.47;;;;;;;;;;5094154;28;20447;-58
2023/06/21 10:55:23;;;;;;;7.93;7.40;;;;;;;;;;5093715;28;20525;-59
2023/06/21 10:57:53;;;;;;;7.03;6.63;;;;;;;;;;5093859;28;20453;-60
2023/06/21 11:00:21;;;;;;;7.97;7.10;;;;;;;;;;5093664;28;20926;-60
2023/06/21 11:02:48;;;;;;;6.90;6.30;;;;;;;;;;5093348;28;20481;-62
2023/06/21 11:05:16;;;;;;;6.73;6.23;;;;;;;;;;5093376;28;20537;-61
2023/06/21 11:07:48;;;;;;;7.93;7.27;;;;;;;;;;5093615;28;20447;-59
2023/06/21 11:10:15;;;;;;;7.20;6.80;;;;;;;;;;5093705;28;20533;-60
2023/06/21 11:12:42;;;;;;;7.00;6.47;;;;;;;;;;5093579;28;20537;-59
2023/06/21 11:15:11;;;;;;;6.67;6.27;;;;;;;;;;5093428;28;20478;-60
2023/06/21 11:17:38;;;;;;;6.60;6.10;;;;;;;;;;5093305;28;20534;-58
2023/06/21 11:20:20;;;;;;;7.90;7.00;;;;;;;;;;5093582;28;20802;-59
2023/06/21 11:22:57;;;;;;;7.23;6.53;;;;;;;;;;5093413;28;20558;-59
2023/06/21 11:25:24;;;;;;;6.60;6.20;;;;;;;;;;5093438;28;20443;-58
2023/06/21 11:28:22;;;;;;;6.50;6.10;;;;;;;;;;5093192;28;20447;-57
2023/06/21 11:31:03;;;;;;;7.20;6.80;;;;;;;;;;5093458;28;20449;-58
2023/06/21 11:33:33;;;;;;;6.87;6.27;;;;;;;;;;5093346;28;20454;-59
2023/06/21 11:36:03;;;;;;;5.93;5.43;;;;;;;;;;5093222;28;21100;-63
2023/06/21 11:38:30;;;;;;;6.00;5.60;;;;;;;;;;5092874;28;20454;-58
2023/06/21 11:40:57;;;;;;;6.43;5.53;;;;;;;;;;5093332;28;20455;-60
2023/06/21 11:43:24;;;;;;;6.37;5.80;;;;;;;;;;5093099;28;20566;-61
2023/06/21 11:45:56;;;;;;;4.97;4.67;;;;;;;;;;5093023;28;21002;-59
2023/06/21 11:48:25;;;;;;;4.77;4.57;;;;;;;;;;5092710;28;20465;-59
2023/06/21 11:50:55;;;;;;;5.60;5.20;;;;;;;;;;5092889;28;20457;-61
2023/06/21 11:53:23;;;;;;;5.50;5.10;;;;;;;;;;5092926;28;20497;-59
2023/06/21 11:55:51;;;;;;;5.47;5.07;;;;;;;;;;5092686;28;21048;-60
2023/06/21 11:58:19;;;;;;;5.30;5.00;;;;;;;;;;5092959;28;20435;-59
2023/06/21 12:00:46;;;;;;;5.27;4.77;;;;;;;;;;5092709;28;20457;-60
2023/06/21 12:03:13;;;;;;;5.53;5.23;;;;;;;;;;5092646;28;20517;-60
2023/06/21 12:05:44;;;;;;;5.93;5.23;;;;;;;;;;5092697;28;20784;-61
2023/06/21 12:08:12;;;;;;;6.53;5.20;;;;;;;;;;5092816;28;20443;-62
2023/06/21 12:10:39;;;;;;;6.03;5.53;;;;;;;;;;5092518;28;20447;-59
2023/06/21 12:13:06;;;;;;;5.50;5.20;;;;;;;;;;5092792;28;20451;-60
2023/06/21 12:15:33;;;;;;;6.00;5.67;;;;;;;;;;5092443;28;20470;-58
2023/06/21 12:18:00;;;;;;;4.97;4.63;;;;;;;;;;5092371;28;20447;-58
2023/06/21 12:20:27;;;;;;;5.27;4.87;;;;;;;;;;5092884;28;20542;-58
2023/06/21 12:22:54;;;;;;;5.50;5.17;;;;;;;;;;5092685;28;20457;-60
2023/06/21 12:25:22;;;;;;;6.10;5.60;;;;;;;;;;5092737;28;20454;-60
2023/06/21 12:27:52;;;;;;;5.83;5.50;;;;;;;;;;5092563;28;20447;-60
2023/06/21 12:30:19;;;;;;;6.87;6.27;;;;;;;;;;5092552;28;20451;-58
2023/06/21 12:32:49;;;;;;;5.63;5.33;;;;;;;;;;5092529;28;20451;-59
2023/06/21 12:35:17;;;;;;;5.40;5.10;;;;;;;;;;5092705;28;20549;-59
2023/06/21 12:37:46;;;;;;;5.57;5.17;;;;;;;;;;5092453;28;20530;-62
2023/06/21 12:40:17;;;;;;;5.70;5.30;;;;;;;;;;5092536;28;20455;-59
2023/06/21 12:42:46;;;;;;;5.60;5.20;;;;;;;;;;5092443;28;20446;-59
2023/06/21 12:45:20;;;;;;;5.00;4.70;;;;;;;;;;5092342;28;20453;-59
2023/06/21 12:47:49;;;;;;;4.40;4.20;;;;;;;;;;5092182;28;20987;-59
2023/06/21 12:50:20;;;;;;;9.00;8.23;;;;;;;;;;5092156;28;20490;-58
2023/06/21 12:52:47;;;;;;;4.90;4.60;;;;;;;;;;5092385;28;20447;-59
2023/06/21 12:55:16;;;;;;;5.40;4.97;;;;;;;;;;5092056;28;20459;-60
2023/06/21 12:57:43;;;;;;;4.47;4.17;;;;;;;;;;5092097;28;20810;-60
2023/06/21 13:00:13;;;;;;;6.03;4.10;;;;;;;;;;5094726;28;20447;-60
2023/06/21 13:02:40;;;;;;;4.47;4.17;;;;;;;;;;5095973;28;20860;-58
2023/06/21 13:05:07;;;;;;;4.47;4.17;;;;;;;;;;5096008;28;20504;-60
2023/06/21 13:07:34;;;;;;;4.80;4.50;;;;;;;;;;5095986;28;20470;-58
2023/06/21 13:10:01;;;;;;;5.10;4.60;;;;;;;;;;5095803;28;20453;-60
2023/06/21 13:12:28;;;;;;;5.33;4.93;;;;;;;;;;5095427;28;20475;-60
2023/06/21 13:14:55;;;;;;;4.27;4.07;;;;;;;;;;5094494;28;20447;-60
2023/06/21 13:17:24;;;;;;;5.00;4.80;;;;;;;;;;5095464;28;20972;-60
2023/06/21 13:19:53;;;;;;;5.07;4.53;;;;;;;;;;5095826;28;20688;-60
2023/06/21 13:22:21;;;;;;;5.37;5.07;;;;;;;;;;5095800;28;20450;-60
2023/06/21 13:24:48;;;;;;;6.80;4.40;;;;;;;;;;5095453;28;20486;-60
2023/06/21 13:27:15;;;;;;;5.00;4.70;;;;;;;;;;5095724;28;20474;-60
2023/06/21 13:29:42;;;;;;;5.93;4.70;;;;;;;;;;5095735;28;20451;-60
2023/06/21 13:32:09;;;;;;;4.90;4.50;;;;;;;;;;5095503;28;20455;-60
2023/06/21 13:34:37;;;;;;;4.80;4.50;;;;;;;;;;5095415;28;20554;-60
2023/06/21 13:37:04;;;;;;;5.50;5.00;;;;;;;;;;5095234;28;20538;-60
2023/06/21 13:39:33;;;;;;;5.23;4.83;;;;;;;;;;5095515;28;20944;-60
2023/06/21 13:42:00;;;;;;;6.67;6.00;;;;;;;;;;5095448;28;20958;-60
2023/06/21 13:44:27;;;;;;;5.30;4.90;;;;;;;;;;5095229;28;20921;-60
2023/06/21 13:46:54;;;;;;;5.87;5.47;;;;;;;;;;5095275;28;20530;-60
2023/06/21 13:49:21;;;;;;;5.00;4.70;;;;;;;;;;5095267;28;20447;-60
2023/06/21 13:51:49;;;;;;;5.17;4.70;;;;;;;;;;5095041;28;20443;-60
2023/06/21 13:54:17;;;;;;;4.30;4.10;;;;;;;;;;5095508;28;20542;-60
2023/06/21 13:56:43;;;;;;;4.67;4.47;;;;;;;;;;5094821;28;20475;-60
2023/06/21 13:59:10;;;;;;;5.60;4.80;;;;;;;;;;5095084;28;20455;-59
2023/06/21 14:01:37;;;;;;;4.87;4.57;;;;;;;;;;5094990;28;20881;-60
2023/06/21 14:04:04;;;;;;;4.57;4.37;;;;;;;;;;5094881;28;20529;-59
2023/06/21 14:06:31;;;;;;;5.10;4.80;;;;;;;;;;5094818;28;20450;-59
2023/06/21 14:09:00;;;;;;;5.67;5.27;;;;;;;;;;5094999;28;20538;-59
2023/06/21 14:11:27;;;;;;;5.10;4.80;;;;;;;;;;5094723;28;20451;-59
2023/06/21 14:13:54;;;;;;;5.00;4.70;;;;;;;;;;5094686;28;20490;-59
2023/06/21 14:16:20;;;;;;;5.47;5.07;;;;;;;;;;5094606;28;20539;-59
2023/06/21 14:18:47;;;;;;;5.50;5.20;;;;;;;;;;5094597;28;20450;-59
2023/06/21 14:21:15;;;;;;;5.47;5.07;;;;;;;;;;5094837;28;21079;-59
2023/06/21 14:23:41;;;;;;;6.03;5.43;;;;;;;;;;5094672;28;20569;-59
2023/06/21 14:26:10;;;;;;;5.80;5.50;;;;;;;;;;5094595;28;20451;-59
2023/06/21 14:28:39;;;;;;;5.07;4.70;;;;;;;;;;5094545;28;20455;-59
2023/06/21 14:31:06;;;;;;;5.47;5.10;;;;;;;;;;5094298;28;20451;-59